createdAt,value
2023-02-05T00:00:38.946Z,85.30
2023-02-05T00:03:05.340Z,133.45
2023-02-05T00:05:32.092Z,84.28
2023-02-05T00:07:58.629Z,31.88
2023-02-05T00:10:24.923Z,60.70
2023-02-05T00:12:51.289Z,44.55
2023-02-05T00:15:17.602Z,98.25
2023-02-05T00:17:43.916Z,120.55
2023-02-05T00:20:10.800Z,33.92
2023-02-05T00:22:37.108Z,42.67
2023-02-05T00:25:03.674Z,56.50
2023-02-05T00:27:29.963Z,80.20
2023-02-05T00:29:56.256Z,88.72
2023-02-05T00:32:22.614Z,119.03
2023-02-05T00:34:49.451Z,69.70
2023-02-05T00:37:15.821Z,46.67
2023-02-05T00:39:42.229Z,44.55
2023-02-05T00:42:08.996Z,34.42
2023-02-05T00:44:35.381Z,30.75
2023-02-05T00:47:01.762Z,35.35
2023-02-05T00:49:28.161Z,37.45
2023-02-05T00:51:54.467Z,40.35
2023-02-05T00:54:20.768Z,31.02
2023-02-05T00:56:47.085Z,25.70
2023-02-05T00:59:13.586Z,38.35
2023-02-05T01:01:39.912Z,38.78
2023-02-05T01:04:06.287Z,43.67
2023-02-05T01:06:32.635Z,39.38
2023-02-05T01:08:58.964Z,36.30
2023-02-05T01:11:25.392Z,26.65
2023-02-05T01:13:51.861Z,30.35
2023-02-05T01:16:18.249Z,36.50
2023-02-05T01:18:45.133Z,32.40
2023-02-05T01:21:11.636Z,40.10
2023-02-05T01:23:37.958Z,35.63
2023-02-05T01:26:04.426Z,38.17
2023-02-05T01:28:30.760Z,34.13
2023-02-05T01:30:57.278Z,33.53
2023-02-05T01:33:23.614Z,34.55
2023-02-05T01:35:50.120Z,30.35
2023-02-05T01:38:16.485Z,30.50
2023-02-05T01:40:42.997Z,33.80
2023-02-05T01:43:14.243Z,25.33
2023-02-05T01:48:22.193Z,26.13
2023-02-05T01:50:53.411Z,26.27
2023-02-05T01:55:57.072Z,36.00
2023-02-05T01:58:27.231Z,34.45
2023-02-05T02:00:53.819Z,33.80
2023-02-05T02:03:21.191Z,27.65
2023-02-05T02:05:47.557Z,27.48
2023-02-05T02:08:13.923Z,24.95
2023-02-05T02:10:43.626Z,21.13
2023-02-05T02:13:12.064Z,30.83
2023-02-05T02:15:40.048Z,33.83
2023-02-05T02:18:26.017Z,28.88
2023-02-05T02:21:14.171Z,29.63
2023-02-05T02:23:59.386Z,36.28
2023-02-05T02:27:14.951Z,23.65
2023-02-05T02:30:08.754Z,32.95
2023-02-05T02:32:43.381Z,23.95
2023-02-05T02:35:28.522Z,29.60
2023-02-05T02:38:20.575Z,23.15
2023-02-05T02:40:52.879Z,24.52
2023-02-05T02:43:27.920Z,30.10
2023-02-05T02:46:09.066Z,30.77
2023-02-05T02:48:38.646Z,30.60
2023-02-05T02:51:09.156Z,25.92
2023-02-05T02:53:39.764Z,30.35
2023-02-05T02:56:09.825Z,22.95
2023-02-05T02:58:44.796Z,30.08
2023-02-05T03:01:12.670Z,25.80
2023-02-05T03:03:44.402Z,25.60
2023-02-05T03:06:12.831Z,33.50
2023-02-05T03:08:52.886Z,27.55
2023-02-05T03:11:19.407Z,34.72
2023-02-05T03:13:46.620Z,31.13
2023-02-05T03:16:15.553Z,26.10
2023-02-05T03:18:42.633Z,34.92
2023-02-05T03:21:19.231Z,34.75
2023-02-05T03:23:45.656Z,26.13
2023-02-05T03:26:30.553Z,36.25
2023-02-05T03:29:11.761Z,31.55
2023-02-05T03:31:43.919Z,27.00
2023-02-05T03:34:30.010Z,31.40
2023-02-05T03:37:13.511Z,24.83
2023-02-05T03:40:00.553Z,37.50
2023-02-05T03:42:33.905Z,31.90
2023-02-05T03:45:23.837Z,34.30
2023-02-05T03:48:07.799Z,33.60
2023-02-05T03:50:44.229Z,28.67
2023-02-05T03:53:32.067Z,32.85
2023-02-05T03:56:24.833Z,31.33
2023-02-05T03:58:55.577Z,31.27
2023-02-05T04:03:51.417Z,35.80
2023-02-05T04:06:18.250Z,37.50
2023-02-05T04:08:47.082Z,33.95
2023-02-05T04:11:14.550Z,29.50
2023-02-05T04:13:43.106Z,32.47
2023-02-05T04:16:11.233Z,33.85
2023-02-05T04:18:38.056Z,32.92
2023-02-05T04:21:04.865Z,28.40
2023-02-05T04:23:32.896Z,32.95
2023-02-05T04:26:00.101Z,28.35
2023-02-05T04:28:33.607Z,30.90
2023-02-05T04:31:02.638Z,30.52
2023-02-05T04:33:32.860Z,36.63
2023-02-05T04:36:00.344Z,32.53
2023-02-05T04:38:27.310Z,27.52
2023-02-05T04:40:53.702Z,29.55
2023-02-05T04:43:20.077Z,27.48
2023-02-05T04:45:46.422Z,35.33
2023-02-05T04:48:13.031Z,24.45
2023-02-05T04:50:39.689Z,29.83
2023-02-05T04:53:06.034Z,31.77
2023-02-05T04:55:33.274Z,34.53
2023-02-05T04:57:59.756Z,30.25
2023-02-05T05:00:26.224Z,24.30
2023-02-05T05:02:52.641Z,29.20
2023-02-05T05:05:19.178Z,31.88
2023-02-05T05:07:45.467Z,29.77
2023-02-05T05:10:12.186Z,32.33
2023-02-05T05:12:38.677Z,35.30
2023-02-05T05:15:06.064Z,34.70
2023-02-05T05:17:33.659Z,28.40
2023-02-05T05:20:00.603Z,30.13
2023-02-05T05:22:26.947Z,31.95
2023-02-05T05:24:53.243Z,24.88
2023-02-05T05:27:19.698Z,24.77
2023-02-05T05:29:46.419Z,27.58
2023-02-05T05:32:13.934Z,22.98
2023-02-05T05:34:40.291Z,28.08
2023-02-05T05:37:06.655Z,26.25
2023-02-05T05:39:51.770Z,31.50
2023-02-05T05:42:36.534Z,28.77
2023-02-05T05:45:02.968Z,17.70
2023-02-05T05:47:29.265Z,24.25
2023-02-05T05:49:55.602Z,24.50
2023-02-05T05:52:21.900Z,24.05
2023-02-05T05:54:48.236Z,19.73
2023-02-05T05:57:14.538Z,24.23
2023-02-05T05:59:40.860Z,23.98
2023-02-05T06:02:07.160Z,23.35
2023-02-05T06:04:33.697Z,26.65
2023-02-05T06:07:00.208Z,29.05
2023-02-05T06:09:26.525Z,20.65
2023-02-05T06:11:52.852Z,21.30
2023-02-05T06:14:19.238Z,23.75
2023-02-05T06:16:45.567Z,27.88
2023-02-05T06:19:11.878Z,29.13
2023-02-05T06:21:38.207Z,23.60
2023-02-05T06:24:04.861Z,27.88
2023-02-05T06:26:31.155Z,25.20
2023-02-05T06:28:57.462Z,22.45
2023-02-05T06:31:24.178Z,18.98
2023-02-05T06:33:50.550Z,31.20
2023-02-05T06:36:16.857Z,21.23
2023-02-05T06:38:43.147Z,22.60
2023-02-05T06:41:09.492Z,20.25
2023-02-05T06:43:35.785Z,29.00
2023-02-05T06:46:02.115Z,25.15
2023-02-05T06:48:28.415Z,22.85
2023-02-05T06:50:54.724Z,24.02
2023-02-05T06:53:21.037Z,24.30
2023-02-05T06:55:47.340Z,26.58
2023-02-05T06:58:13.758Z,24.85
2023-02-05T07:00:40.201Z,22.55
2023-02-05T07:03:06.563Z,21.35
2023-02-05T07:05:34.245Z,29.23
2023-02-05T07:08:01.254Z,21.52
2023-02-05T07:10:27.555Z,24.30
2023-02-05T07:12:53.878Z,26.55
2023-02-05T07:15:20.173Z,24.35
2023-02-05T07:17:46.506Z,27.27
2023-02-05T07:20:12.847Z,26.25
2023-02-05T07:22:39.212Z,26.17
2023-02-05T07:25:05.870Z,24.27
2023-02-05T07:27:32.250Z,30.88
2023-02-05T07:29:59.326Z,21.52
2023-02-05T07:32:25.695Z,24.50
2023-02-05T07:34:52.071Z,27.13
2023-02-05T07:37:21.140Z,29.27
2023-02-05T07:39:47.693Z,23.95
2023-02-05T07:42:13.978Z,22.10
2023-02-05T07:44:48.018Z,24.48
2023-02-05T07:47:14.384Z,21.88
2023-02-05T07:49:40.765Z,23.17
2023-02-05T07:52:07.338Z,23.00
2023-02-05T07:54:33.632Z,21.40
2023-02-05T07:57:01.658Z,28.48
2023-02-05T07:59:28.107Z,27.02
2023-02-05T08:01:54.415Z,20.38
2023-02-05T08:04:20.798Z,26.98
2023-02-05T08:06:47.167Z,25.13
2023-02-05T08:09:14.208Z,30.80
2023-02-05T08:11:40.539Z,38.47
2023-02-05T08:14:06.908Z,69.13
2023-02-05T08:16:33.333Z,37.60
2023-02-05T08:18:59.684Z,30.75
2023-02-05T08:21:25.967Z,28.48
2023-02-05T08:23:52.452Z,25.90
2023-02-05T08:26:19.207Z,26.50
2023-02-05T08:28:45.959Z,27.80
2023-02-05T08:31:15.497Z,27.38
2023-02-05T08:33:41.946Z,26.15
2023-02-05T08:36:11.450Z,31.38
2023-02-05T08:38:37.885Z,27.05
2023-02-05T08:41:12.354Z,31.80
2023-02-05T08:43:40.727Z,34.80
2023-02-05T08:46:08.195Z,37.72
2023-02-05T08:48:34.613Z,34.22
2023-02-05T08:51:00.970Z,33.42
2023-02-05T08:53:27.670Z,33.22
2023-02-05T08:55:58.513Z,28.08
2023-02-05T08:58:25.219Z,32.58
2023-02-05T09:00:52.208Z,30.48
2023-02-05T09:03:19.023Z,40.00
2023-02-05T09:05:45.343Z,32.97
2023-02-05T09:08:11.715Z,32.83
2023-02-05T09:10:38.001Z,38.63
2023-02-05T09:13:04.327Z,28.95
2023-02-05T09:15:30.682Z,32.75
2023-02-05T09:17:56.994Z,32.40
2023-02-05T09:20:23.336Z,51.95
2023-02-05T09:22:50.816Z,43.55
2023-02-05T09:25:17.393Z,35.83
2023-02-05T09:27:43.725Z,32.20
2023-02-05T09:30:10.839Z,31.90
2023-02-05T09:32:37.180Z,34.53
2023-02-05T09:35:03.866Z,34.97
2023-02-05T09:37:30.198Z,30.52
2023-02-05T09:43:00.488Z,36.10
2023-02-05T09:45:38.413Z,28.25
2023-02-05T09:48:08.277Z,32.70
2023-02-05T09:50:35.001Z,31.52
2023-02-05T09:53:13.057Z,29.75
2023-02-05T09:55:44.722Z,27.92
2023-02-05T09:58:19.286Z,24.30
2023-02-05T10:00:58.500Z,30.10
2023-02-05T10:03:34.447Z,28.85
2023-02-05T10:06:29.431Z,32.17
2023-02-05T10:09:17.607Z,33.05
2023-02-05T10:12:13.390Z,45.35
2023-02-05T10:15:00.689Z,61.53
2023-02-05T10:17:57.801Z,82.95
2023-02-05T10:20:44.285Z,83.60
2023-02-05T10:23:17.071Z,131.73
2023-02-05T10:26:13.184Z,95.63
2023-02-05T10:28:45.266Z,54.88
2023-02-05T10:31:11.575Z,43.55
2023-02-05T10:33:49.669Z,30.48
2023-02-05T10:36:21.868Z,28.30
2023-02-05T10:38:49.695Z,29.05
2023-02-05T10:41:38.436Z,30.13
2023-02-05T10:44:14.863Z,33.88
2023-02-05T10:46:43.844Z,35.22
2023-02-05T10:49:18.673Z,28.95
2023-02-05T10:51:46.130Z,26.92
2023-02-05T10:54:22.727Z,30.85
2023-02-05T10:56:49.372Z,34.00
2023-02-05T10:59:22.163Z,32.92
2023-02-05T11:01:49.981Z,47.58
2023-02-05T11:04:24.806Z,38.05
2023-02-05T11:06:52.812Z,34.20
2023-02-05T11:09:25.271Z,39.55
2023-02-05T11:12:25.534Z,44.80
2023-02-05T11:14:58.783Z,34.60
2023-02-05T11:17:29.627Z,38.10
2023-02-05T11:19:58.978Z,57.30
2023-02-05T11:22:31.594Z,44.90
2023-02-05T11:25:26.009Z,37.40
2023-02-05T11:28:03.832Z,37.53
2023-02-05T11:30:50.809Z,35.38
2023-02-05T11:33:27.317Z,38.53
2023-02-05T11:36:06.102Z,40.63
2023-02-05T11:38:51.478Z,42.17
2023-02-05T11:41:47.948Z,42.65
2023-02-05T11:44:37.091Z,38.25
2023-02-05T11:47:03.685Z,49.72
2023-02-05T11:49:36.888Z,44.05
2023-02-05T11:52:15.064Z,49.05
2023-02-05T11:54:46.824Z,55.58
2023-02-05T11:57:22.206Z,47.72
2023-02-05T11:59:56.985Z,42.05
2023-02-05T12:02:26.160Z,43.60
2023-02-05T12:04:58.689Z,16.50
2023-02-05T12:07:28.700Z,11.18
2023-02-05T12:09:59.226Z,14.57
2023-02-05T12:12:40.098Z,17.17
2023-02-05T12:15:21.860Z,20.50
2023-02-05T12:18:06.735Z,18.83
2023-02-05T12:20:40.856Z,20.33
2023-02-05T12:23:23.262Z,15.95
2023-02-05T12:26:14.134Z,9.30
2023-02-05T12:29:18.467Z,9.02
2023-02-05T12:31:51.967Z,11.18
2023-02-05T12:34:57.032Z,13.13
2023-02-05T12:37:43.675Z,17.88
2023-02-05T12:40:34.494Z,11.80
2023-02-05T12:43:23.310Z,9.35
2023-02-05T12:45:58.859Z,9.82
2023-02-05T12:49:00.124Z,10.00
2023-02-05T12:51:40.661Z,6.05
2023-02-05T12:54:25.577Z,8.30
2023-02-05T12:57:00.267Z,4.05
2023-02-05T12:59:58.205Z,3.80
2023-02-05T13:02:49.534Z,5.00
2023-02-05T13:05:22.540Z,49.42
2023-02-05T13:08:27.642Z,36.15
2023-02-05T13:10:59.776Z,18.30
2023-02-05T13:13:31.594Z,12.85
2023-02-05T13:16:13.256Z,11.95
2023-02-05T13:18:44.271Z,15.88
2023-02-05T13:21:35.764Z,13.40
2023-02-05T13:27:45.372Z,10.50
2023-02-05T13:32:44.096Z,7.72
2023-02-05T13:35:10.839Z,9.00
2023-02-05T13:37:55.803Z,7.82
2023-02-05T13:40:34.824Z,6.40
2023-02-05T13:43:27.498Z,5.00
2023-02-05T13:46:18.289Z,4.70
2023-02-05T13:49:25.837Z,4.13
2023-02-05T13:52:25.468Z,4.88
2023-02-05T13:55:16.687Z,3.20
2023-02-05T13:58:11.042Z,3.75
2023-02-05T14:00:40.764Z,5.00
2023-02-05T14:03:09.592Z,2.13
2023-02-05T14:05:38.974Z,2.50
2023-02-05T14:08:06.472Z,2.38
2023-02-05T14:10:41.396Z,1.60
2023-02-05T14:13:19.128Z,1.35
2023-02-05T14:15:46.202Z,2.95
2023-02-05T14:18:40.638Z,1.88
2023-02-05T14:21:45.691Z,1.02
2023-02-05T14:24:40.912Z,3.13
2023-02-05T14:27:40.111Z,5.55
2023-02-05T14:30:39.135Z,9.82
2023-02-05T14:33:25.736Z,14.63
2023-02-05T14:36:15.020Z,18.50
2023-02-05T14:38:45.244Z,15.85
2023-02-05T14:41:20.999Z,12.13
2023-02-05T14:44:06.975Z,6.50
2023-02-05T14:46:44.304Z,7.07
2023-02-05T14:49:33.619Z,9.70
2023-02-05T14:52:07.697Z,15.32
2023-02-05T14:54:41.901Z,14.13
2023-02-05T14:57:35.814Z,17.90
2023-02-05T15:00:23.994Z,32.13
2023-02-05T15:03:05.355Z,21.52
2023-02-05T15:08:12.360Z,21.95
2023-02-05T15:11:32.932Z,25.05
2023-02-05T15:14:21.323Z,45.22
2023-02-05T15:17:09.869Z,56.42
2023-02-05T15:19:50.661Z,68.22
2023-02-05T15:22:28.608Z,57.00
2023-02-05T15:24:56.381Z,94.80
2023-02-05T15:27:45.422Z,59.22
2023-02-05T15:30:20.038Z,54.83
2023-02-05T15:33:05.787Z,14.52
2023-02-05T15:35:34.268Z,7.70
2023-02-05T15:38:27.877Z,7.75
2023-02-05T15:40:54.644Z,6.68
2023-02-05T15:43:26.038Z,10.95
2023-02-05T15:46:00.472Z,10.30
2023-02-05T15:48:30.462Z,11.32
2023-02-05T15:51:16.793Z,18.77
2023-02-05T15:53:49.410Z,20.20
2023-02-05T15:56:35.236Z,16.58
2023-02-05T15:59:12.763Z,18.83
2023-02-05T16:01:47.801Z,21.33
2023-02-05T16:04:35.406Z,21.70
2023-02-05T16:07:02.368Z,11.55
2023-02-05T16:09:31.106Z,8.68
2023-02-05T16:12:10.327Z,6.47
2023-02-05T16:14:36.639Z,4.53
2023-02-05T16:17:11.922Z,6.50
2023-02-05T16:20:15.624Z,14.30
2023-02-05T16:22:55.566Z,22.88
2023-02-05T16:25:34.245Z,26.30
2023-02-05T16:28:10.905Z,29.90
2023-02-05T16:30:40.815Z,62.22
2023-02-05T16:33:26.684Z,44.55
2023-02-05T16:35:53.856Z,27.92
2023-02-05T16:38:23.093Z,37.83
2023-02-05T16:40:53.795Z,27.00
2023-02-05T16:43:37.058Z,24.73
2023-02-05T16:46:06.401Z,15.95
2023-02-05T16:48:36.607Z,12.85
2023-02-05T16:51:04.418Z,17.52
2023-02-05T16:53:36.811Z,17.42
2023-02-05T16:56:47.320Z,15.50
2023-02-05T16:59:19.313Z,26.05
2023-02-05T17:01:45.894Z,42.28
2023-02-05T17:04:41.866Z,41.47
2023-02-05T17:07:21.603Z,36.03
2023-02-05T17:09:49.816Z,27.58
2023-02-05T17:12:22.042Z,24.27
2023-02-05T17:14:59.740Z,18.80
2023-02-05T17:17:27.353Z,17.10
2023-02-05T17:20:14.995Z,13.20
2023-02-05T17:23:04.983Z,14.05
2023-02-05T17:25:36.563Z,12.93
2023-02-05T17:28:04.983Z,11.20
2023-02-05T17:30:32.275Z,8.82
2023-02-05T17:32:58.655Z,7.80
2023-02-05T17:35:25.768Z,6.00
2023-02-05T17:37:55.090Z,6.22
2023-02-05T17:40:21.463Z,5.50
2023-02-05T17:42:48.062Z,6.22
2023-02-05T17:45:19.401Z,6.18
2023-02-05T17:47:45.784Z,6.68
2023-02-05T17:50:12.394Z,7.70
2023-02-05T17:52:39.113Z,5.15
2023-02-05T17:55:06.441Z,7.40
2023-02-05T17:57:34.837Z,5.03
2023-02-05T18:00:01.171Z,7.32
2023-02-05T18:02:27.568Z,5.38
2023-02-05T18:04:53.948Z,5.22
2023-02-05T18:07:29.739Z,8.05
2023-02-05T18:09:56.548Z,6.32
2023-02-05T18:12:23.351Z,51.50
2023-02-05T18:14:50.269Z,83.18
2023-02-05T18:17:17.100Z,87.82
2023-02-05T18:19:43.593Z,66.60
2023-02-05T18:22:10.117Z,43.58
2023-02-05T18:24:36.982Z,42.13
2023-02-05T18:27:04.356Z,24.25
2023-02-05T18:29:30.698Z,12.52
2023-02-05T18:31:57.063Z,22.77
2023-02-05T18:34:23.484Z,28.42
2023-02-05T18:36:49.770Z,18.60
2023-02-05T18:39:16.061Z,10.00
2023-02-05T18:41:42.417Z,12.32
2023-02-05T18:44:08.859Z,33.92
2023-02-05T18:46:35.448Z,19.65
2023-02-05T18:49:01.825Z,18.38
2023-02-05T18:51:28.283Z,21.08
2023-02-05T18:53:54.597Z,23.77
2023-02-05T18:56:26.982Z,14.63
2023-02-05T18:58:58.957Z,12.10
2023-02-05T19:01:25.526Z,12.55
2023-02-05T19:03:55.536Z,13.85
2023-02-05T19:06:22.255Z,10.00
2023-02-05T19:08:49.358Z,8.27
2023-02-05T19:11:20.217Z,13.07
2023-02-05T19:13:47.579Z,7.50
2023-02-05T19:16:16.815Z,4.75
2023-02-05T19:18:45.540Z,5.28
2023-02-05T19:21:19.881Z,4.60
2023-02-05T19:23:50.347Z,4.80
2023-02-05T19:26:18.784Z,9.50
2023-02-05T19:28:46.642Z,6.78
2023-02-05T19:31:15.187Z,5.10
2023-02-05T19:33:42.335Z,5.13
2023-02-05T19:36:10.118Z,6.57
2023-02-05T19:38:38.097Z,6.90
2023-02-05T19:41:16.370Z,15.55
2023-02-05T19:43:50.059Z,14.05
2023-02-05T19:46:21.521Z,6.82
2023-02-05T19:48:48.052Z,8.85
2023-02-05T19:51:15.398Z,11.07
2023-02-05T19:53:45.111Z,15.95
2023-02-05T19:56:17.224Z,9.60
2023-02-05T19:58:45.614Z,8.77
2023-02-05T20:01:21.917Z,7.50
2023-02-05T20:03:48.338Z,9.20
2023-02-05T20:06:16.892Z,12.98
2023-02-05T20:08:44.288Z,9.45
2023-02-05T20:11:11.105Z,7.75
2023-02-05T20:13:39.168Z,5.60
2023-02-05T20:16:10.523Z,4.38
2023-02-05T20:18:38.336Z,3.70
2023-02-05T20:21:10.044Z,7.93
2023-02-05T20:23:36.505Z,5.07
2023-02-05T20:26:04.145Z,4.75
2023-02-05T20:28:32.299Z,6.45
2023-02-05T20:31:18.115Z,4.85
2023-02-05T20:33:44.620Z,5.47
2023-02-05T20:36:12.560Z,6.38
2023-02-05T20:38:39.737Z,5.60
2023-02-05T20:41:14.437Z,8.57
2023-02-05T20:43:40.854Z,4.85
2023-02-05T20:46:08.292Z,4.53
2023-02-05T20:48:34.719Z,7.43
2023-02-05T20:51:15.251Z,4.53
2023-02-05T20:53:41.979Z,4.40
2023-02-05T20:56:14.674Z,4.85
2023-02-05T20:58:41.515Z,3.78
2023-02-05T21:01:13.815Z,5.90
2023-02-05T21:03:43.726Z,4.82
2023-02-05T21:06:10.960Z,11.93
2023-02-05T21:08:39.415Z,9.82
2023-02-05T21:11:06.236Z,5.60
2023-02-05T21:13:33.318Z,6.30
2023-02-05T21:16:00.832Z,7.78
2023-02-05T21:18:28.691Z,9.60
2023-02-05T21:20:55.193Z,7.47
2023-02-05T21:23:21.592Z,10.52
2023-02-05T21:25:47.967Z,19.20
2023-02-05T21:28:14.714Z,23.92
2023-02-05T21:30:42.858Z,23.08
2023-02-05T21:33:09.348Z,19.77
2023-02-05T21:35:38.820Z,18.60
2023-02-05T21:38:05.188Z,15.80
2023-02-05T21:40:31.503Z,18.45
2023-02-05T21:42:57.803Z,11.43
2023-02-05T21:45:24.183Z,10.93
2023-02-05T21:47:50.590Z,14.10
2023-02-05T21:50:16.966Z,25.02
2023-02-05T21:52:43.271Z,22.13
2023-02-05T21:55:09.662Z,31.67
2023-02-05T21:57:35.962Z,43.95
2023-02-05T22:00:04.050Z,58.95
2023-02-05T22:02:38.479Z,41.28
2023-02-05T22:05:05.231Z,22.83
2023-02-05T22:07:31.885Z,12.40
2023-02-05T22:09:58.325Z,13.35
2023-02-05T22:12:24.648Z,10.65
2023-02-05T22:14:50.984Z,10.35
2023-02-05T22:17:17.314Z,9.18
2023-02-05T22:19:43.633Z,9.05
2023-02-05T22:22:09.993Z,11.15
2023-02-05T22:24:36.351Z,13.85
2023-02-05T22:27:02.885Z,11.95
2023-02-05T22:29:29.217Z,13.98
2023-02-05T22:31:55.536Z,15.80
2023-02-05T22:34:22.424Z,10.73
2023-02-05T22:36:48.760Z,13.45
2023-02-05T22:39:15.077Z,23.92
2023-02-05T22:41:43.023Z,45.58
2023-02-05T22:44:11.018Z,57.80
2023-02-05T22:46:40.678Z,63.53
2023-02-05T22:49:07.075Z,68.43
2023-02-05T22:51:39.038Z,88.90
2023-02-05T22:54:06.970Z,123.20
2023-02-05T22:56:33.735Z,89.38
2023-02-05T22:59:02.969Z,79.50
2023-02-05T23:01:34.365Z,95.95
2023-02-05T23:04:02.678Z,95.93
2023-02-05T23:06:34.617Z,49.30
2023-02-05T23:09:06.914Z,28.85
2023-02-05T23:11:34.165Z,17.42
2023-02-05T23:14:01.806Z,15.23
2023-02-05T23:16:32.425Z,14.88
2023-02-05T23:19:01.188Z,18.55
2023-02-05T23:21:29.559Z,66.82
2023-02-05T23:23:56.347Z,102.35
2023-02-05T23:26:25.728Z,83.47
2023-02-05T23:28:54.129Z,31.42
2023-02-05T23:31:21.290Z,31.20
2023-02-05T23:33:47.715Z,19.42
2023-02-05T23:36:14.025Z,23.02
2023-02-05T23:38:40.969Z,8.88
2023-02-05T23:41:07.681Z,14.93
2023-02-05T23:43:35.828Z,13.30
2023-02-05T23:46:03.702Z,10.45
2023-02-05T23:48:30.146Z,11.88
2023-02-05T23:50:59.423Z,13.35
2023-02-05T23:53:25.801Z,13.35
2023-02-05T23:55:53.805Z,9.57
2023-02-05T23:58:23.777Z,14.32
